sensor_id;sensor_type;location;lat;lon;timestamp;P1;durP1;ratioP1;P2;durP2;ratioP2
16866;SDS011;8550;52.596;13.320;2022-10-16T00:00:40;3.30;;;1.30;;
16866;SDS011;8550;52.596;13.320;2022-10-16T00:05:43;2.43;;;0.90;;
16866;SDS011;8550;52.596;13.320;2022-10-16T00:10:46;4.10;;;1.63;;
16866;SDS011;8550;52.596;13.320;2022-10-16T00:15:48;3.13;;;1.23;;
16866;SDS011;8550;52.596;13.320;2022-10-16T00:20:50;5.77;;;1.10;;
16866;SDS011;8550;52.596;13.320;2022-10-16T00:25:56;3.13;;;1.30;;
16866;SDS011;8550;52.596;13.320;2022-10-16T00:31:02;3.95;;;1.08;;
16866;SDS011;8550;52.596;13.320;2022-10-16T00:36:05;2.80;;;1.40;;
16866;SDS011;8550;52.596;13.320;2022-10-16T00:41:11;2.63;;;0.97;;
16866;SDS011;8550;52.596;13.320;2022-10-16T00:46:15;2.55;;;1.00;;
16866;SDS011;8550;52.596;13.320;2022-10-16T00:51:21;3.15;;;1.35;;
16866;SDS011;8550;52.596;13.320;2022-10-16T00:56:31;2.67;;;1.10;;
16866;SDS011;8550;52.596;13.320;2022-10-16T01:01:33;3.00;;;1.17;;
16866;SDS011;8550;52.596;13.320;2022-10-16T01:06:36;3.40;;;1.25;;
16866;SDS011;8550;52.596;13.320;2022-10-16T01:11:48;3.20;;;1.07;;
16866;SDS011;8550;52.596;13.320;2022-10-16T01:16:57;4.20;;;1.25;;
16866;SDS011;8550;52.596;13.320;2022-10-16T01:22:03;3.22;;;1.50;;
16866;SDS011;8550;52.596;13.320;2022-10-16T01:27:10;2.83;;;1.20;;
16866;SDS011;8550;52.596;13.320;2022-10-16T01:32:15;3.23;;;1.17;;
16866;SDS011;8550;52.596;13.320;2022-10-16T01:37:22;2.70;;;1.10;;
16866;SDS011;8550;52.596;13.320;2022-10-16T01:42:32;2.97;;;1.15;;
16866;SDS011;8550;52.596;13.320;2022-10-16T01:47:37;3.23;;;1.30;;
16866;SDS011;8550;52.596;13.320;2022-10-16T01:52:42;3.15;;;1.52;;
16866;SDS011;8550;52.596;13.320;2022-10-16T01:57:49;3.08;;;1.05;;
16866;SDS011;8550;52.596;13.320;2022-10-16T02:02:53;3.47;;;1.50;;
16866;SDS011;8550;52.596;13.320;2022-10-16T02:07:56;2.20;;;0.90;;
16866;SDS011;8550;52.596;13.320;2022-10-16T02:13:00;2.40;;;0.90;;
16866;SDS011;8550;52.596;13.320;2022-10-16T02:18:05;2.27;;;0.80;;
16866;SDS011;8550;52.596;13.320;2022-10-16T02:23:11;4.57;;;1.20;;
16866;SDS011;8550;52.596;13.320;2022-10-16T02:28:17;3.88;;;1.20;;
16866;SDS011;8550;52.596;13.320;2022-10-16T02:33:23;3.25;;;1.15;;
16866;SDS011;8550;52.596;13.320;2022-10-16T02:38:26;2.13;;;0.90;;
16866;SDS011;8550;52.596;13.320;2022-10-16T02:43:31;2.67;;;1.00;;
16866;SDS011;8550;52.596;13.320;2022-10-16T02:48:33;3.15;;;1.20;;
16866;SDS011;8550;52.596;13.320;2022-10-16T02:53:35;2.03;;;0.90;;
16866;SDS011;8550;52.596;13.320;2022-10-16T02:58:39;3.00;;;0.82;;
16866;SDS011;8550;52.596;13.320;2022-10-16T03:03:40;2.53;;;0.90;;
16866;SDS011;8550;52.596;13.320;2022-10-16T03:08:42;4.57;;;1.10;;
16866;SDS011;8550;52.596;13.320;2022-10-16T03:13:45;3.03;;;1.30;;
16866;SDS011;8550;52.596;13.320;2022-10-16T03:18:47;3.58;;;1.05;;
16866;SDS011;8550;52.596;13.320;2022-10-16T03:23:50;2.28;;;0.90;;
16866;SDS011;8550;52.596;13.320;2022-10-16T03:28:53;1.63;;;0.77;;
16866;SDS011;8550;52.596;13.320;2022-10-16T03:33:55;2.50;;;1.02;;
16866;SDS011;8550;52.596;13.320;2022-10-16T03:38:56;3.83;;;1.30;;
16866;SDS011;8550;52.596;13.320;2022-10-16T03:43:59;2.30;;;1.00;;
16866;SDS011;8550;52.596;13.320;2022-10-16T03:49:01;2.53;;;1.38;;
16866;SDS011;8550;52.596;13.320;2022-10-16T03:54:03;2.67;;;1.00;;
16866;SDS011;8550;52.596;13.320;2022-10-16T03:59:06;2.73;;;1.10;;
16866;SDS011;8550;52.596;13.320;2022-10-16T04:04:08;3.03;;;1.30;;
16866;SDS011;8550;52.596;13.320;2022-10-16T04:09:10;3.05;;;1.10;;
16866;SDS011;8550;52.596;13.320;2022-10-16T04:14:13;2.28;;;1.15;;
16866;SDS011;8550;52.596;13.320;2022-10-16T04:19:15;2.70;;;1.10;;
16866;SDS011;8550;52.596;13.320;2022-10-16T04:24:16;3.47;;;1.00;;
16866;SDS011;8550;52.596;13.320;2022-10-16T04:29:19;2.75;;;1.20;;
16866;SDS011;8550;52.596;13.320;2022-10-16T04:34:21;2.60;;;1.07;;
16866;SDS011;8550;52.596;13.320;2022-10-16T04:39:23;2.72;;;1.00;;
16866;SDS011;8550;52.596;13.320;2022-10-16T04:44:26;3.63;;;1.20;;
16866;SDS011;8550;52.596;13.320;2022-10-16T04:49:28;2.03;;;0.90;;
16866;SDS011;8550;52.596;13.320;2022-10-16T04:54:30;3.07;;;1.37;;
16866;SDS011;8550;52.596;13.320;2022-10-16T04:59:33;3.67;;;1.20;;
16866;SDS011;8550;52.596;13.320;2022-10-16T05:04:34;3.25;;;1.20;;
16866;SDS011;8550;52.596;13.320;2022-10-16T05:09:36;4.03;;;1.27;;
16866;SDS011;8550;52.596;13.320;2022-10-16T05:14:39;2.92;;;1.13;;
16866;SDS011;8550;52.596;13.320;2022-10-16T05:19:41;2.90;;;1.10;;
16866;SDS011;8550;52.596;13.320;2022-10-16T05:24:43;2.50;;;1.10;;
16866;SDS011;8550;52.596;13.320;2022-10-16T05:29:46;3.60;;;1.50;;
16866;SDS011;8550;52.596;13.320;2022-10-16T05:34:50;3.60;;;1.27;;
16866;SDS011;8550;52.596;13.320;2022-10-16T05:39:52;3.47;;;1.50;;
16866;SDS011;8550;52.596;13.320;2022-10-16T05:44:55;3.47;;;1.33;;
16866;SDS011;8550;52.596;13.320;2022-10-16T05:49:57;3.03;;;1.30;;
16866;SDS011;8550;52.596;13.320;2022-10-16T05:54:59;3.00;;;1.00;;
16866;SDS011;8550;52.596;13.320;2022-10-16T06:00:02;3.73;;;1.30;;
16866;SDS011;8550;52.596;13.320;2022-10-16T06:05:05;3.83;;;1.30;;
16866;SDS011;8550;52.596;13.320;2022-10-16T06:10:07;3.70;;;1.50;;
16866;SDS011;8550;52.596;13.320;2022-10-16T06:15:11;4.13;;;1.70;;
16866;SDS011;8550;52.596;13.320;2022-10-16T06:20:12;5.63;;;1.75;;
16866;SDS011;8550;52.596;13.320;2022-10-16T06:25:15;4.10;;;1.30;;
16866;SDS011;8550;52.596;13.320;2022-10-16T06:30:18;3.70;;;1.50;;
16866;SDS011;8550;52.596;13.320;2022-10-16T06:35:19;3.50;;;1.50;;
16866;SDS011;8550;52.596;13.320;2022-10-16T06:40:21;3.00;;;1.33;;
16866;SDS011;8550;52.596;13.320;2022-10-16T06:45:25;4.20;;;1.30;;
16866;SDS011;8550;52.596;13.320;2022-10-16T06:50:26;3.07;;;1.17;;
16866;SDS011;8550;52.596;13.320;2022-10-16T06:55:28;4.65;;;1.58;;
16866;SDS011;8550;52.596;13.320;2022-10-16T07:00:31;3.90;;;1.55;;
16866;SDS011;8550;52.596;13.320;2022-10-16T07:05:36;3.27;;;1.17;;
16866;SDS011;8550;52.596;13.320;2022-10-16T07:10:38;5.00;;;1.60;;
16866;SDS011;8550;52.596;13.320;2022-10-16T07:15:41;2.78;;;1.38;;
16866;SDS011;8550;52.596;13.320;2022-10-16T07:20:43;3.37;;;1.40;;
16866;SDS011;8550;52.596;13.320;2022-10-16T07:25:52;3.07;;;1.37;;
16866;SDS011;8550;52.596;13.320;2022-10-16T07:30:59;2.92;;;1.48;;
16866;SDS011;8550;52.596;13.320;2022-10-16T07:36:01;3.95;;;1.55;;
16866;SDS011;8550;52.596;13.320;2022-10-16T07:41:04;3.60;;;1.57;;
16866;SDS011;8550;52.596;13.320;2022-10-16T07:46:08;2.33;;;1.05;;
16866;SDS011;8550;52.596;13.320;2022-10-16T07:51:10;3.88;;;1.10;;
16866;SDS011;8550;52.596;13.320;2022-10-16T07:56:12;2.97;;;1.20;;
16866;SDS011;8550;52.596;13.320;2022-10-16T08:01:16;2.63;;;1.00;;
16866;SDS011;8550;52.596;13.320;2022-10-16T08:06:19;4.65;;;1.38;;
16866;SDS011;8550;52.596;13.320;2022-10-16T08:11:22;3.80;;;1.20;;
16866;SDS011;8550;52.596;13.320;2022-10-16T08:16:25;4.70;;;1.80;;
16866;SDS011;8550;52.596;13.320;2022-10-16T08:21:27;2.97;;;1.40;;
16866;SDS011;8550;52.596;13.320;2022-10-16T08:26:29;3.17;;;1.45;;
16866;SDS011;8550;52.596;13.320;2022-10-16T08:31:32;3.03;;;0.97;;
16866;SDS011;8550;52.596;13.320;2022-10-16T08:36:34;2.47;;;1.30;;
16866;SDS011;8550;52.596;13.320;2022-10-16T08:47:08;3.10;;;0.90;;
16866;SDS011;8550;52.596;13.320;2022-10-16T08:52:18;2.10;;;0.85;;
16866;SDS011;8550;52.596;13.320;2022-10-16T08:57:21;3.45;;;1.35;;
16866;SDS011;8550;52.596;13.320;2022-10-16T09:02:28;2.60;;;1.00;;
16866;SDS011;8550;52.596;13.320;2022-10-16T09:07:35;2.40;;;1.00;;
16866;SDS011;8550;52.596;13.320;2022-10-16T09:12:46;4.90;;;0.93;;
16866;SDS011;8550;52.596;13.320;2022-10-16T09:17:56;2.42;;;1.10;;
16866;SDS011;8550;52.596;13.320;2022-10-16T09:23:13;2.50;;;0.80;;
16866;SDS011;8550;52.596;13.320;2022-10-16T09:28:17;4.25;;;1.00;;
16866;SDS011;8550;52.596;13.320;2022-10-16T09:33:21;2.80;;;0.90;;
16866;SDS011;8550;52.596;13.320;2022-10-16T09:38:27;4.43;;;1.27;;
16866;SDS011;8550;52.596;13.320;2022-10-16T09:43:32;2.78;;;1.30;;
16866;SDS011;8550;52.596;13.320;2022-10-16T09:48:37;3.03;;;1.30;;
16866;SDS011;8550;52.596;13.320;2022-10-16T09:53:45;2.87;;;1.20;;
16866;SDS011;8550;52.596;13.320;2022-10-16T09:58:49;3.43;;;1.30;;
16866;SDS011;8550;52.596;13.320;2022-10-16T10:03:55;4.75;;;1.30;;
16866;SDS011;8550;52.596;13.320;2022-10-16T10:09:05;3.72;;;0.80;;
16866;SDS011;8550;52.596;13.320;2022-10-16T10:14:20;2.90;;;1.03;;
16866;SDS011;8550;52.596;13.320;2022-10-16T10:19:27;2.28;;;1.00;;
16866;SDS011;8550;52.596;13.320;2022-10-16T10:24:29;2.70;;;1.25;;
16866;SDS011;8550;52.596;13.320;2022-10-16T10:29:35;2.17;;;0.87;;
16866;SDS011;8550;52.596;13.320;2022-10-16T10:34:59;1.98;;;0.68;;
16866;SDS011;8550;52.596;13.320;2022-10-16T10:40:17;2.45;;;0.90;;
16866;SDS011;8550;52.596;13.320;2022-10-16T10:45:35;2.47;;;0.90;;
16866;SDS011;8550;52.596;13.320;2022-10-16T10:50:45;1.97;;;0.80;;
16866;SDS011;8550;52.596;13.320;2022-10-16T10:55:51;2.17;;;0.82;;
16866;SDS011;8550;52.596;13.320;2022-10-16T11:01:01;3.53;;;1.10;;
16866;SDS011;8550;52.596;13.320;2022-10-16T11:06:11;3.17;;;0.70;;
16866;SDS011;8550;52.596;13.320;2022-10-16T11:11:18;2.28;;;0.98;;
16866;SDS011;8550;52.596;13.320;2022-10-16T11:16:26;2.38;;;1.00;;
16866;SDS011;8550;52.596;13.320;2022-10-16T11:21:34;2.93;;;1.00;;
16866;SDS011;8550;52.596;13.320;2022-10-16T11:26:41;1.98;;;0.88;;
16866;SDS011;8550;52.596;13.320;2022-10-16T11:31:45;1.92;;;0.90;;
16866;SDS011;8550;52.596;13.320;2022-10-16T11:36:53;2.67;;;0.90;;
16866;SDS011;8550;52.596;13.320;2022-10-16T11:42:01;3.23;;;1.07;;
16866;SDS011;8550;52.596;13.320;2022-10-16T11:47:12;2.97;;;0.80;;
16866;SDS011;8550;52.596;13.320;2022-10-16T11:52:28;1.38;;;0.80;;
16866;SDS011;8550;52.596;13.320;2022-10-16T11:57:38;1.77;;;0.57;;
16866;SDS011;8550;52.596;13.320;2022-10-16T12:02:48;1.75;;;0.77;;
16866;SDS011;8550;52.596;13.320;2022-10-16T12:08:02;2.67;;;0.65;;
16866;SDS011;8550;52.596;13.320;2022-10-16T12:13:28;2.03;;;0.73;;
16866;SDS011;8550;52.596;13.320;2022-10-16T12:18:34;2.45;;;0.80;;
16866;SDS011;8550;52.596;13.320;2022-10-16T12:23:38;1.10;;;0.50;;
16866;SDS011;8550;52.596;13.320;2022-10-16T12:28:49;1.60;;;0.57;;
16866;SDS011;8550;52.596;13.320;2022-10-16T12:33:57;1.80;;;0.70;;
16866;SDS011;8550;52.596;13.320;2022-10-16T12:39:02;1.77;;;0.70;;
16866;SDS011;8550;52.596;13.320;2022-10-16T12:44:05;1.42;;;0.52;;
16866;SDS011;8550;52.596;13.320;2022-10-16T12:49:23;1.93;;;0.50;;
16866;SDS011;8550;52.596;13.320;2022-10-16T12:54:36;2.17;;;0.68;;
16866;SDS011;8550;52.596;13.320;2022-10-16T12:59:42;1.30;;;0.50;;
16866;SDS011;8550;52.596;13.320;2022-10-16T13:04:50;1.80;;;0.70;;
16866;SDS011;8550;52.596;13.320;2022-10-16T13:10:11;1.88;;;0.70;;
16866;SDS011;8550;52.596;13.320;2022-10-16T13:15:26;2.03;;;1.02;;
16866;SDS011;8550;52.596;13.320;2022-10-16T13:20:46;1.40;;;0.63;;
16866;SDS011;8550;52.596;13.320;2022-10-16T13:26:01;3.27;;;0.63;;
16866;SDS011;8550;52.596;13.320;2022-10-16T13:31:15;1.48;;;0.60;;
16866;SDS011;8550;52.596;13.320;2022-10-16T13:36:21;1.60;;;0.70;;
16866;SDS011;8550;52.596;13.320;2022-10-16T13:41:28;1.10;;;0.33;;
16866;SDS011;8550;52.596;13.320;2022-10-16T13:46:29;0.95;;;0.47;;
16866;SDS011;8550;52.596;13.320;2022-10-16T13:51:34;1.63;;;0.57;;
16866;SDS011;8550;52.596;13.320;2022-10-16T13:56:38;1.83;;;0.50;;
16866;SDS011;8550;52.596;13.320;2022-10-16T14:01:41;1.60;;;0.50;;
16866;SDS011;8550;52.596;13.320;2022-10-16T14:06:45;1.50;;;0.40;;
16866;SDS011;8550;52.596;13.320;2022-10-16T14:11:52;1.37;;;0.60;;
16866;SDS011;8550;52.596;13.320;2022-10-16T14:16:56;3.60;;;0.60;;
16866;SDS011;8550;52.596;13.320;2022-10-16T14:21:58;1.50;;;0.60;;
16866;SDS011;8550;52.596;13.320;2022-10-16T14:32:27;1.83;;;0.50;;
16866;SDS011;8550;52.596;13.320;2022-10-16T14:37:29;1.98;;;0.60;;
16866;SDS011;8550;52.596;13.320;2022-10-16T14:42:33;1.95;;;0.70;;
16866;SDS011;8550;52.596;13.320;2022-10-16T14:47:36;2.13;;;0.67;;
16866;SDS011;8550;52.596;13.320;2022-10-16T14:52:48;2.00;;;0.90;;
16866;SDS011;8550;52.596;13.320;2022-10-16T14:57:51;2.97;;;0.70;;
16866;SDS011;8550;52.596;13.320;2022-10-16T15:02:53;1.73;;;0.73;;
16866;SDS011;8550;52.596;13.320;2022-10-16T15:07:55;1.10;;;0.60;;
16866;SDS011;8550;52.596;13.320;2022-10-16T15:12:59;1.77;;;0.70;;
16866;SDS011;8550;52.596;13.320;2022-10-16T15:18:00;1.98;;;1.00;;
16866;SDS011;8550;52.596;13.320;2022-10-16T15:23:03;3.10;;;0.80;;
16866;SDS011;8550;52.596;13.320;2022-10-16T15:28:09;3.30;;;0.88;;
16866;SDS011;8550;52.596;13.320;2022-10-16T15:33:12;2.15;;;0.70;;
16866;SDS011;8550;52.596;13.320;2022-10-16T15:38:16;2.37;;;1.10;;
16866;SDS011;8550;52.596;13.320;2022-10-16T15:43:20;2.50;;;0.82;;
16866;SDS011;8550;52.596;13.320;2022-10-16T15:48:22;2.20;;;0.80;;
16866;SDS011;8550;52.596;13.320;2022-10-16T15:53:24;2.07;;;0.80;;
16866;SDS011;8550;52.596;13.320;2022-10-16T15:58:28;1.90;;;0.67;;
16866;SDS011;8550;52.596;13.320;2022-10-16T16:03:31;1.27;;;0.60;;
16866;SDS011;8550;52.596;13.320;2022-10-16T16:08:33;2.15;;;0.95;;
16866;SDS011;8550;52.596;13.320;2022-10-16T16:13:37;3.33;;;0.53;;
16866;SDS011;8550;52.596;13.320;2022-10-16T16:18:39;2.42;;;0.90;;
16866;SDS011;8550;52.596;13.320;2022-10-16T16:23:41;3.05;;;0.90;;
16866;SDS011;8550;52.596;13.320;2022-10-16T16:28:44;2.97;;;1.10;;
16866;SDS011;8550;52.596;13.320;2022-10-16T16:33:46;4.65;;;0.85;;
16866;SDS011;8550;52.596;13.320;2022-10-16T16:38:48;3.78;;;1.00;;
16866;SDS011;8550;52.596;13.320;2022-10-16T16:43:51;5.10;;;1.27;;
16866;SDS011;8550;52.596;13.320;2022-10-16T16:48:53;4.60;;;2.00;;
16866;SDS011;8550;52.596;13.320;2022-10-16T16:53:55;4.50;;;1.90;;
16866;SDS011;8550;52.596;13.320;2022-10-16T16:58:58;9.45;;;3.58;;
16866;SDS011;8550;52.596;13.320;2022-10-16T17:04:00;4.97;;;2.10;;
16866;SDS011;8550;52.596;13.320;2022-10-16T17:09:02;5.00;;;2.10;;
16866;SDS011;8550;52.596;13.320;2022-10-16T17:14:08;2.90;;;1.30;;
16866;SDS011;8550;52.596;13.320;2022-10-16T17:19:11;3.33;;;1.60;;
16866;SDS011;8550;52.596;13.320;2022-10-16T17:24:14;3.50;;;1.15;;
16866;SDS011;8550;52.596;13.320;2022-10-16T17:29:18;4.40;;;1.23;;
16866;SDS011;8550;52.596;13.320;2022-10-16T17:34:20;2.70;;;1.40;;
16866;SDS011;8550;52.596;13.320;2022-10-16T17:39:22;3.70;;;1.57;;
16866;SDS011;8550;52.596;13.320;2022-10-16T17:44:25;3.03;;;1.33;;
16866;SDS011;8550;52.596;13.320;2022-10-16T17:49:27;5.72;;;1.40;;
16866;SDS011;8550;52.596;13.320;2022-10-16T17:54:29;8.67;;;4.10;;
16866;SDS011;8550;52.596;13.320;2022-10-16T17:59:32;6.88;;;3.15;;
16866;SDS011;8550;52.596;13.320;2022-10-16T18:04:34;8.07;;;2.80;;
16866;SDS011;8550;52.596;13.320;2022-10-16T18:09:36;5.00;;;2.03;;
16866;SDS011;8550;52.596;13.320;2022-10-16T18:14:39;10.38;;;2.88;;
16866;SDS011;8550;52.596;13.320;2022-10-16T18:19:41;7.40;;;2.63;;
16866;SDS011;8550;52.596;13.320;2022-10-16T18:24:43;5.57;;;2.53;;
16866;SDS011;8550;52.596;13.320;2022-10-16T18:29:46;4.80;;;2.13;;
16866;SDS011;8550;52.596;13.320;2022-10-16T18:34:48;6.40;;;2.70;;
16866;SDS011;8550;52.596;13.320;2022-10-16T18:39:50;6.15;;;2.45;;
16866;SDS011;8550;52.596;13.320;2022-10-16T18:44:53;10.30;;;5.03;;
16866;SDS011;8550;52.596;13.320;2022-10-16T18:49:54;5.78;;;2.58;;
16866;SDS011;8550;52.596;13.320;2022-10-16T18:54:56;5.07;;;1.80;;
16866;SDS011;8550;52.596;13.320;2022-10-16T18:59:59;4.20;;;1.97;;
16866;SDS011;8550;52.596;13.320;2022-10-16T19:05:01;5.97;;;2.40;;
16866;SDS011;8550;52.596;13.320;2022-10-16T19:10:03;4.95;;;2.08;;
16866;SDS011;8550;52.596;13.320;2022-10-16T19:15:07;5.83;;;2.17;;
16866;SDS011;8550;52.596;13.320;2022-10-16T19:20:09;5.27;;;2.43;;
16866;SDS011;8550;52.596;13.320;2022-10-16T19:25:11;6.30;;;2.75;;
16866;SDS011;8550;52.596;13.320;2022-10-16T19:30:15;6.50;;;2.58;;
16866;SDS011;8550;52.596;13.320;2022-10-16T19:35:16;7.47;;;3.33;;
16866;SDS011;8550;52.596;13.320;2022-10-16T19:40:18;5.03;;;2.80;;
16866;SDS011;8550;52.596;13.320;2022-10-16T19:45:21;5.47;;;2.08;;
16866;SDS011;8550;52.596;13.320;2022-10-16T19:50:23;6.90;;;2.40;;
16866;SDS011;8550;52.596;13.320;2022-10-16T19:55:25;6.72;;;2.10;;
16866;SDS011;8550;52.596;13.320;2022-10-16T20:00:28;4.30;;;1.75;;
16866;SDS011;8550;52.596;13.320;2022-10-16T20:05:30;5.37;;;2.17;;
16866;SDS011;8550;52.596;13.320;2022-10-16T20:10:32;14.10;;;6.37;;
16866;SDS011;8550;52.596;13.320;2022-10-16T20:15:37;14.65;;;6.40;;
16866;SDS011;8550;52.596;13.320;2022-10-16T20:20:39;11.13;;;3.72;;
16866;SDS011;8550;52.596;13.320;2022-10-16T20:25:42;6.13;;;2.20;;
16866;SDS011;8550;52.596;13.320;2022-10-16T20:30:46;9.05;;;2.60;;
16866;SDS011;8550;52.596;13.320;2022-10-16T20:35:50;5.97;;;1.90;;
16866;SDS011;8550;52.596;13.320;2022-10-16T20:40:51;4.70;;;1.97;;
16866;SDS011;8550;52.596;13.320;2022-10-16T20:45:58;5.07;;;1.85;;
16866;SDS011;8550;52.596;13.320;2022-10-16T20:51:09;5.63;;;2.40;;
16866;SDS011;8550;52.596;13.320;2022-10-16T20:56:12;4.60;;;1.83;;
16866;SDS011;8550;52.596;13.320;2022-10-16T21:01:16;6.30;;;2.90;;
16866;SDS011;8550;52.596;13.320;2022-10-16T21:06:20;5.55;;;2.63;;
16866;SDS011;8550;52.596;13.320;2022-10-16T21:11:22;7.03;;;2.55;;
16866;SDS011;8550;52.596;13.320;2022-10-16T21:16:28;6.70;;;3.00;;
16866;SDS011;8550;52.596;13.320;2022-10-16T21:21:31;6.43;;;2.88;;
16866;SDS011;8550;52.596;13.320;2022-10-16T21:26:35;10.20;;;3.47;;
16866;SDS011;8550;52.596;13.320;2022-10-16T21:31:38;9.40;;;3.70;;
16866;SDS011;8550;52.596;13.320;2022-10-16T21:36:41;9.38;;;3.42;;
16866;SDS011;8550;52.596;13.320;2022-10-16T21:41:44;11.80;;;3.80;;
16866;SDS011;8550;52.596;13.320;2022-10-16T21:46:49;7.00;;;3.37;;
16866;SDS011;8550;52.596;13.320;2022-10-16T21:51:51;7.77;;;3.40;;
16866;SDS011;8550;52.596;13.320;2022-10-16T21:56:53;10.45;;;3.70;;
16866;SDS011;8550;52.596;13.320;2022-10-16T22:01:57;8.10;;;3.97;;
16866;SDS011;8550;52.596;13.320;2022-10-16T22:07:01;10.20;;;3.97;;
16866;SDS011;8550;52.596;13.320;2022-10-16T22:12:03;8.23;;;4.18;;
16866;SDS011;8550;52.596;13.320;2022-10-16T22:17:06;6.80;;;3.40;;
16866;SDS011;8550;52.596;13.320;2022-10-16T22:22:08;8.40;;;4.27;;
16866;SDS011;8550;52.596;13.320;2022-10-16T22:27:10;6.45;;;3.58;;
16866;SDS011;8550;52.596;13.320;2022-10-16T22:32:14;6.78;;;3.42;;
16866;SDS011;8550;52.596;13.320;2022-10-16T22:37:15;9.10;;;4.73;;
16866;SDS011;8550;52.596;13.320;2022-10-16T22:42:17;9.13;;;4.80;;
16866;SDS011;8550;52.596;13.320;2022-10-16T22:47:22;8.38;;;4.45;;
16866;SDS011;8550;52.596;13.320;2022-10-16T22:52:24;10.02;;;4.38;;
16866;SDS011;8550;52.596;13.320;2022-10-16T22:57:27;9.27;;;4.80;;
16866;SDS011;8550;52.596;13.320;2022-10-16T23:02:30;11.02;;;4.57;;
16866;SDS011;8550;52.596;13.320;2022-10-16T23:07:33;12.30;;;4.82;;
16866;SDS011;8550;52.596;13.320;2022-10-16T23:12:37;11.77;;;5.43;;
16866;SDS011;8550;52.596;13.320;2022-10-16T23:17:40;10.70;;;5.50;;
16866;SDS011;8550;52.596;13.320;2022-10-16T23:22:42;10.38;;;4.40;;
16866;SDS011;8550;52.596;13.320;2022-10-16T23:27:46;9.17;;;5.33;;
16866;SDS011;8550;52.596;13.320;2022-10-16T23:32:49;10.73;;;5.53;;
16866;SDS011;8550;52.596;13.320;2022-10-16T23:37:51;10.48;;;5.70;;
16866;SDS011;8550;52.596;13.320;2022-10-16T23:42:53;9.68;;;5.32;;
16866;SDS011;8550;52.596;13.320;2022-10-16T23:47:56;10.47;;;5.37;;
16866;SDS011;8550;52.596;13.320;2022-10-16T23:52:58;10.45;;;5.53;;
16866;SDS011;8550;52.596;13.320;2022-10-16T23:58:00;10.63;;;5.72;;
